Time;durP1;ratioP1;P1;durP2;ratioP2;P2;SDS_P1;SDS_P2;PMS_P1;PMS_P2;Temp;Humidity;BMP_temperature;BMP_pressure;BME280_temperature;BME280_humidity;BME280_pressure;Samples;Min_cycle;Max_cycle;Signal;HPM_P1;HPM_P2
2021/12/14 00:00:28;;;;;;;394.80;251.60;;;;;;;0.93;80.01;98931.98;106281;1323;22599;-66
2021/12/14 00:03:08;;;;;;;391.80;255.50;;;;;;;1.02;79.96;98931.61;106269;1323;23237;-69
2021/12/14 00:05:36;;;;;;;399.50;258.50;;;;;;;1.08;80.10;98933.23;106306;1319;22450;-69
2021/12/14 00:08:07;;;;;;;401.30;264.00;;;;;;;1.12;80.20;98934.58;106274;1322;24168;-68
2021/12/14 00:13:19;;;;;;;379.50;250.00;;;;;;;1.11;79.99;98937.94;106315;1317;23679;-69
2021/12/14 00:15:49;;;;;;;364.90;233.70;;;;;;;1.14;79.93;98934.54;106279;1317;22530;-68
2021/12/14 00:18:21;;;;;;;347.20;231.10;;;;;;;1.17;80.02;98933.38;106314;1319;22519;-68
2021/12/14 00:20:58;;;;;;;382.10;251.80;;;;;;;1.20;80.10;98934.77;106296;1319;22298;-68
2021/12/14 00:26:19;;;;;;;379.00;246.10;;;;;;;1.24;80.12;98932.56;106319;1318;22423;-69
2021/12/14 00:28:48;;;;;;;355.30;230.90;;;;;;;1.23;80.18;98929.21;106299;1315;22520;-68
2021/12/14 00:31:19;;;;;;;348.80;220.40;;;;;;;1.23;80.14;98925.33;106238;1322;22533;-68
2021/12/14 00:33:52;;;;;;;354.50;233.30;;;;;;;1.25;79.91;98932.02;106315;1316;22727;-67
2021/12/14 00:36:22;;;;;;;349.00;226.50;;;;;;;1.22;79.93;98940.88;106259;1316;22510;-68
2021/12/14 00:38:56;;;;;;;328.20;219.40;;;;;;;1.24;80.30;98943.19;106202;1318;22514;-67
2021/12/14 00:41:44;;;;;;;344.50;225.90;;;;;;;1.26;80.28;98942.55;106237;1316;137722;-67
2021/12/14 00:44:12;;;;;;;317.40;203.70;;;;;;;1.25;80.29;98941.78;106322;1319;22578;-68
2021/12/14 00:46:41;;;;;;;298.00;194.80;;;;;;;1.22;79.88;98947.07;106252;1319;23391;-68
2021/12/14 00:49:12;;;;;;;312.10;207.90;;;;;;;1.20;79.83;98950.30;106313;1317;22596;-69
2021/12/14 00:51:41;;;;;;;321.90;210.90;;;;;;;1.24;80.26;98957.60;106314;1315;23294;-69
2021/12/14 00:54:14;;;;;;;331.50;213.80;;;;;;;1.26;80.34;98956.16;106294;1323;22332;-68
2021/12/14 00:56:48;;;;;;;328.40;212.80;;;;;;;1.27;80.37;98953.30;106308;1323;22494;-68
2021/12/14 00:59:20;;;;;;;333.60;208.20;;;;;;;1.24;80.34;98952.78;106298;1323;23468;-67
2021/12/14 01:01:59;;;;;;;319.40;202.20;;;;;;;1.23;80.29;98947.23;106282;1322;22629;-68
2021/12/14 01:04:33;;;;;;;334.50;221.40;;;;;;;1.25;80.28;98944.73;106275;1320;22454;-68
2021/12/14 01:07:05;;;;;;;355.60;226.60;;;;;;;1.24;80.32;98943.55;106218;1318;22740;-67
2021/12/14 01:09:38;;;;;;;379.60;244.20;;;;;;;1.22;80.44;98945.08;106310;1321;22479;-68
2021/12/14 01:12:13;;;;;;;373.50;236.60;;;;;;;1.19;80.46;98942.56;106216;1315;138111;-67
2021/12/14 01:14:51;;;;;;;369.30;231.50;;;;;;;1.16;80.50;98943.96;106272;1322;22560;-68
2021/12/14 01:17:39;;;;;;;378.40;229.30;;;;;;;1.16;80.37;98943.73;106241;1321;23036;-69
2021/12/14 01:20:11;;;;;;;385.80;251.10;;;;;;;1.16;80.16;98939.42;106214;1317;22453;-68
2021/12/14 01:22:43;;;;;;;397.90;259.60;;;;;;;1.11;80.15;98933.69;106282;1316;22410;-69
2021/12/14 01:25:31;;;;;;;404.10;265.60;;;;;;;1.03;80.19;98936.42;106201;1318;22362;-68
2021/12/14 01:28:10;;;;;;;414.90;269.60;;;;;;;0.99;80.59;98938.20;106261;1318;22445;-67
2021/12/14 01:31:50;;;;;;;396.70;254.80;;;;;;;0.97;80.43;98942.86;106218;1320;22480;-69
2021/12/14 01:33:53;;;;;;;397.40;251.00;;;;;;;0.93;80.25;98943.33;106178;1321;22543;-69
2021/12/14 01:36:42;;;;;;;408.50;264.90;;;;;;;0.90;80.19;98935.17;106203;1317;22323;-67
2021/12/14 01:41:58;;;;;;;424.10;278.60;;;;;;;0.89;80.67;98937.79;106133;1318;137911;-68
2021/12/14 01:44:32;;;;;;;430.90;286.30;;;;;;;0.86;80.76;98938.83;106165;1324;23232;-68
2021/12/14 01:47:12;;;;;;;423.10;270.30;;;;;;;0.87;80.90;98938.66;106190;1322;22397;-69
2021/12/14 01:50:19;;;;;;;420.90;264.80;;;;;;;0.86;80.73;98940.25;105779;1324;538679;-68
2021/12/14 01:53:13;;;;;;;446.50;291.00;;;;;;;0.88;80.74;98936.08;105962;1324;22463;-68
2021/12/14 01:55:50;;;;;;;461.50;294.10;;;;;;;0.91;80.77;98930.75;106191;1324;22871;-68
2021/12/14 01:58:22;;;;;;;465.30;299.00;;;;;;;0.89;80.75;98926.39;106244;1324;22467;-68
2021/12/14 02:01:01;;;;;;;451.60;289.90;;;;;;;0.88;80.91;98925.39;106258;1324;22633;-67
2021/12/14 02:03:34;;;;;;;408.20;250.30;;;;;;;0.84;80.89;98927.65;106273;1324;23006;-69
2021/12/14 02:06:04;;;;;;;395.70;242.90;;;;;;;0.84;81.16;98927.80;106243;1324;22420;-68
2021/12/14 02:08:36;;;;;;;393.90;247.60;;;;;;;0.91;81.21;98926.98;106242;1324;22411;-68
2021/12/14 02:11:07;;;;;;;405.20;255.80;;;;;;;0.96;81.14;98928.05;106258;1325;22424;-68
2021/12/14 02:13:42;;;;;;;387.20;246.70;;;;;;;1.02;81.37;98924.70;106210;1326;22457;-68
2021/12/14 02:16:18;;;;;;;410.50;259.80;;;;;;;1.06;81.45;98923.10;106235;1324;22471;-68
2021/12/14 02:18:59;;;;;;;380.90;237.10;;;;;;;1.06;81.32;98920.73;106244;1324;22507;-68
2021/12/14 02:21:28;;;;;;;401.10;250.30;;;;;;;1.06;81.27;98919.72;106246;1323;22301;-68
2021/12/14 02:23:59;;;;;;;415.20;267.60;;;;;;;1.09;81.39;98918.92;106170;1324;22476;-69
2021/12/14 02:26:32;;;;;;;416.00;263.40;;;;;;;1.13;81.54;98923.14;106203;1324;23131;-68
2021/12/14 02:29:04;;;;;;;414.60;264.40;;;;;;;1.14;81.47;98921.83;106088;1326;22286;-66
2021/12/14 02:31:38;;;;;;;419.70;266.50;;;;;;;1.13;81.49;98928.20;106193;1324;23066;-68
2021/12/14 02:34:08;;;;;;;405.20;255.20;;;;;;;1.08;81.19;98927.21;106243;1324;22622;-68
2021/12/14 02:36:44;;;;;;;379.70;233.90;;;;;;;1.09;81.40;98926.44;106227;1324;22396;-68
2021/12/14 02:42:11;;;;;;;386.70;242.80;;;;;;;1.09;81.36;98925.46;106236;1323;22383;-66
2021/12/14 02:44:44;;;;;;;384.30;239.50;;;;;;;1.12;81.45;98924.59;106204;1324;22408;-69
2021/12/14 02:47:15;;;;;;;372.00;226.50;;;;;;;1.11;81.45;98927.53;106285;1324;23812;-68
2021/12/14 02:49:44;;;;;;;321.60;193.50;;;;;;;1.08;81.27;98928.31;105967;1326;22506;-68
2021/12/14 02:52:25;;;;;;;316.60;192.30;;;;;;;1.05;81.39;98926.58;106257;1324;22573;-67
2021/12/14 02:55:05;;;;;;;316.80;197.30;;;;;;;1.06;81.39;98933.14;106223;1324;23235;-68
2021/12/14 02:57:36;;;;;;;321.10;202.90;;;;;;;1.10;81.36;98932.44;106061;1326;22401;-67
2021/12/14 03:00:16;;;;;;;333.10;211.20;;;;;;;1.08;81.30;98931.50;106281;1323;22294;-67
2021/12/14 03:02:44;;;;;;;364.60;223.40;;;;;;;1.02;81.41;98929.45;106313;1323;23292;-66
2021/12/14 03:05:19;;;;;;;315.70;197.20;;;;;;;1.01;81.52;98930.35;105820;1324;22512;-68
2021/12/14 03:07:50;;;;;;;;;;;;;;;0.99;81.58;98931.17;106264;1324;22611;-68
2021/12/14 03:13:08;;;;;;;311.30;201.20;;;;;;;1.01;81.66;98938.19;106243;1323;22947;-68
2021/12/14 03:15:52;;;;;;;328.40;205.20;;;;;;;1.03;81.72;98936.47;106270;1324;23152;-69
2021/12/14 03:18:33;;;;;;;323.40;208.70;;;;;;;1.03;81.75;98936.83;106344;1323;23058;-69
2021/12/14 03:21:12;;;;;;;319.60;205.90;;;;;;;0.98;81.65;98939.63;106301;1323;22301;-69
2021/12/14 03:23:50;;;;;;;318.60;202.80;;;;;;;0.93;81.54;98940.11;106274;1321;23217;-68
2021/12/14 03:26:23;;;;;;;316.90;199.30;;;;;;;0.92;81.58;98942.45;106245;1323;22307;-68
2021/12/14 03:28:55;;;;;;;312.30;203.60;;;;;;;0.95;81.82;98944.09;106201;1324;22697;-68
2021/12/14 03:31:34;;;;;;;336.50;216.00;;;;;;;1.01;81.89;98946.45;106242;1324;22572;-70
2021/12/14 03:34:16;;;;;;;343.80;222.90;;;;;;;1.05;81.98;98948.48;106217;1324;22451;-69
2021/12/14 03:36:59;;;;;;;350.10;227.40;;;;;;;1.07;82.14;98949.36;106080;1324;22817;-69
2021/12/14 03:39:38;;;;;;;363.40;236.40;;;;;;;1.08;82.23;98948.48;106215;1323;22422;-68
2021/12/14 03:42:39;;;;;;;353.50;225.30;;;;;;;1.08;82.19;98947.39;106210;1323;22591;-67
2021/12/14 03:45:17;;;;;;;345.70;221.70;;;;;;;1.03;81.68;98945.49;105437;1331;22536;-67
2021/12/14 03:47:52;;;;;;;354.50;230.30;;;;;;;1.00;81.63;98944.29;105612;1330;22451;-67
2021/12/14 03:50:27;;;;;;;370.20;237.60;;;;;;;0.99;81.77;98937.55;105622;1325;22540;-68
2021/12/14 03:52:57;;;;;;;376.80;240.50;;;;;;;0.97;81.84;98933.96;105576;1330;22386;-68
2021/12/14 03:55:36;;;;;;;376.00;239.00;;;;;;;0.94;81.89;98931.48;105471;1331;22705;-68
2021/12/14 03:58:11;;;;;;;372.90;236.30;;;;;;;0.93;82.08;98930.06;105565;1330;22523;-68
2021/12/14 04:00:48;;;;;;;372.50;232.80;;;;;;;0.92;81.81;98930.35;105600;1329;22779;-68
2021/12/14 04:03:18;;;;;;;366.40;232.70;;;;;;;0.94;81.92;98930.67;105501;1331;22324;-68
2021/12/14 04:05:59;;;;;;;390.40;252.10;;;;;;;0.98;82.05;98925.35;105604;1331;22821;-67
2021/12/14 04:08:28;;;;;;;393.70;254.90;;;;;;;0.99;82.03;98931.66;105593;1330;23295;-68
2021/12/14 04:10:58;;;;;;;413.10;260.60;;;;;;;0.99;82.20;98933.91;105636;1331;22428;-68
2021/12/14 04:13:32;;;;;;;431.40;266.30;;;;;;;1.00;82.19;98931.84;105631;1330;22507;-67
2021/12/14 04:16:03;;;;;;;415.80;253.40;;;;;;;1.04;82.28;98930.00;105468;1331;22451;-67
2021/12/14 04:18:32;;;;;;;409.50;260.00;;;;;;;1.11;82.40;98929.69;105627;1330;23051;-68
2021/12/14 04:21:00;;;;;;;406.20;261.80;;;;;;;1.13;82.19;98930.73;105680;1324;22557;-67
2021/12/14 04:23:35;;;;;;;412.70;269.10;;;;;;;1.10;81.99;98931.21;106269;1323;22490;-68
2021/12/14 04:26:04;;;;;;;;;;;;;;;1.09;82.20;98934.53;106208;1324;22643;-68
2021/12/14 04:28:39;;;;;;;424.50;281.70;;;;;;;1.05;82.12;98940.79;106296;1323;22498;-68
2021/12/14 04:31:07;;;;;;;411.90;259.40;;;;;;;1.00;82.22;98941.45;106210;1324;23328;-66
2021/12/14 04:33:39;;;;;;;403.90;251.70;;;;;;;1.01;82.28;98943.91;106209;1324;22482;-68
2021/12/14 04:36:11;;;;;;;391.30;250.50;;;;;;;1.05;82.32;98945.48;106218;1323;22572;-68
2021/12/14 04:53:15;;;;;;;371.30;230.80;;;;;;;0.83;82.00;98943.04;106224;1324;22554;-65
2021/12/14 04:55:46;;;;;;;373.60;235.60;;;;;;;0.83;82.17;98939.81;105917;1324;23016;-65
2021/12/14 04:58:14;;;;;;;385.60;242.00;;;;;;;0.81;82.14;98940.11;106203;1324;23100;-67
2021/12/14 05:00:47;;;;;;;383.10;243.60;;;;;;;0.79;82.31;98938.16;106182;1323;22573;-66
2021/12/14 05:03:36;;;;;;;385.00;236.70;;;;;;;0.76;82.39;98939.07;106227;1323;23218;-65
2021/12/14 05:06:17;;;;;;;370.20;219.90;;;;;;;0.72;82.44;98936.99;106251;1321;23162;-65
2021/12/14 05:11:22;;;;;;;347.10;218.50;;;;;;;0.76;82.53;98946.17;106235;1324;22607;-66
2021/12/14 05:13:54;;;;;;;356.00;221.60;;;;;;;0.79;82.37;98942.84;106229;1323;22474;-66
2021/12/14 05:16:30;;;;;;;363.30;224.80;;;;;;;0.79;82.50;98944.80;106186;1324;22276;-66
2021/12/14 05:19:04;;;;;;;390.30;233.70;;;;;;;0.78;82.43;98946.70;106190;1324;22659;-70
2021/12/14 05:21:38;;;;;;;376.60;230.60;;;;;;;0.77;82.61;98952.94;106217;1323;22269;-67
2021/12/14 05:24:17;;;;;;;365.40;223.70;;;;;;;0.79;82.53;98954.08;106086;1326;22410;-67
2021/12/14 05:26:56;;;;;;;370.30;224.90;;;;;;;0.86;82.85;98958.14;106249;1324;23171;-66
2021/12/14 05:29:25;;;;;;;380.20;237.60;;;;;;;0.94;82.86;98952.30;106260;1324;22476;-66
2021/12/14 05:31:55;;;;;;;392.50;234.20;;;;;;;1.01;82.92;98944.48;106247;1323;22308;-66
2021/12/14 05:34:26;;;;;;;388.00;231.90;;;;;;;0.98;82.45;98947.06;106191;1324;22441;-68
2021/12/14 05:36:59;;;;;;;;;;;;;;;0.91;82.45;98941.75;106078;1326;22469;-65
2021/12/14 05:40:20;;;;;;;381.70;231.10;;;;;;;0.85;82.60;98938.50;106178;1324;22440;-66
2021/12/14 05:45:44;;;;;;;364.60;218.00;;;;;;;0.82;82.53;98921.16;106202;1323;22603;-67
2021/12/14 05:48:22;;;;;;;368.20;229.50;;;;;;;0.83;82.45;98916.88;106201;1323;22443;-67
2021/12/14 05:50:55;;;;;;;372.10;223.60;;;;;;;0.85;82.76;98918.52;106224;1323;22594;-67
2021/12/14 05:53:33;;;;;;;393.40;242.10;;;;;;;0.86;82.78;98920.21;106279;1323;23201;-67
2021/12/14 05:56:09;;;;;;;387.90;240.70;;;;;;;0.85;82.91;98917.32;106242;1323;22406;-68
2021/12/14 05:58:38;;;;;;;388.50;230.10;;;;;;;0.85;83.09;98924.54;106250;1323;22534;-69
2021/12/14 06:01:09;;;;;;;353.70;213.30;;;;;;;0.90;83.14;98922.92;106241;1324;22468;-67
2021/12/14 06:03:45;;;;;;;357.20;217.20;;;;;;;0.97;82.99;98924.45;106214;1324;22484;-68
2021/12/14 06:06:22;;;;;;;362.40;222.90;;;;;;;0.99;83.11;98929.42;106081;1326;22465;-68
2021/12/14 06:08:58;;;;;;;348.90;207.90;;;;;;;1.01;83.09;98923.94;106222;1324;22662;-66
2021/12/14 06:11:29;;;;;;;354.90;215.80;;;;;;;0.97;82.94;98919.02;106228;1323;23001;-67
2021/12/14 06:13:58;;;;;;;316.30;192.70;;;;;;;0.97;82.95;98922.41;106208;1323;22428;-68
2021/12/14 06:16:34;;;;;;;314.20;190.50;;;;;;;0.97;82.87;98920.08;106181;1323;22280;-67
2021/12/14 06:19:16;;;;;;;314.80;198.70;;;;;;;1.03;83.23;98911.85;106260;1323;22518;-68
2021/12/14 06:21:51;;;;;;;307.60;189.20;;;;;;;1.10;83.32;98910.10;106228;1323;23213;-68
2021/12/14 06:24:22;;;;;;;303.70;192.20;;;;;;;1.16;83.55;98909.81;106260;1323;23237;-68
2021/12/14 06:26:53;;;;;;;293.30;185.50;;;;;;;1.20;83.23;98910.77;106251;1324;23626;-68
2021/12/14 06:29:24;;;;;;;309.50;192.30;;;;;;;1.21;83.49;98907.23;106264;1323;23140;-69
2021/12/14 06:31:55;;;;;;;289.90;177.60;;;;;;;1.24;83.36;98908.22;106214;1325;22599;-68
2021/12/14 06:34:27;;;;;;;296.20;182.50;;;;;;;1.26;83.35;98908.42;106217;1323;23183;-68
2021/12/14 06:37:04;;;;;;;310.70;195.50;;;;;;;1.29;83.18;98907.77;106099;1326;23157;-68
2021/12/14 06:39:56;;;;;;;308.60;192.90;;;;;;;1.33;83.17;98903.91;106255;1323;23275;-70
2021/12/14 06:42:25;;;;;;;316.20;198.80;;;;;;;1.36;83.27;98909.65;106214;1323;22494;-69
2021/12/14 06:45:19;;;;;;;313.30;192.70;;;;;;;1.36;83.28;98912.77;106224;1324;22490;-68
2021/12/14 06:47:52;;;;;;;297.20;188.50;;;;;;;1.34;83.53;98909.37;106192;1323;22621;-69
2021/12/14 06:50:26;;;;;;;280.80;177.40;;;;;;;1.34;83.29;98903.53;106218;1323;23020;-69
2021/12/14 06:53:00;;;;;;;266.50;169.20;;;;;;;1.34;83.17;98902.67;106207;1323;22299;-69
2021/12/14 06:55:59;;;;;;;274.00;178.50;;;;;;;1.40;83.19;98898.73;106262;1323;22369;-69
2021/12/14 06:59:10;;;;;;;287.50;183.30;;;;;;;1.46;83.14;98898.44;106298;1323;22485;-67
2021/12/14 07:02:08;;;;;;;263.50;171.30;;;;;;;1.43;83.11;98902.50;106244;1323;22425;-70
2021/12/14 07:05:22;;;;;;;253.90;163.50;;;;;;;1.41;83.12;98905.02;105786;1324;22538;-67
2021/12/14 07:07:58;;;;;;;233.80;144.10;;;;;;;1.40;83.19;98906.36;106235;1323;23158;-68
2021/12/14 07:10:34;;;;;;;230.10;144.70;;;;;;;1.40;82.96;98907.55;106198;1323;22425;-68
2021/12/14 07:13:11;;;;;;;260.10;166.00;;;;;;;1.41;82.86;98904.59;106254;1323;22410;-68
2021/12/14 07:15:39;;;;;;;215.90;137.80;;;;;;;1.44;83.15;98904.21;106290;1323;22563;-68
2021/12/14 07:18:08;;;;;;;221.60;144.30;;;;;;;1.45;83.03;98905.64;106255;1323;22539;-68
2021/12/14 07:20:46;;;;;;;260.20;163.80;;;;;;;1.46;83.15;98909.96;106295;1323;23343;-68
2021/12/14 07:23:31;;;;;;;244.50;150.50;;;;;;;1.47;83.25;98912.08;106264;1323;22540;-69
2021/12/14 07:26:05;;;;;;;219.50;139.30;;;;;;;1.48;83.02;98915.52;106286;1323;23041;-68
2021/12/14 07:28:39;;;;;;;229.60;146.50;;;;;;;1.49;82.91;98917.09;106142;1316;138764;-68
2021/12/14 07:31:20;;;;;;;227.80;146.70;;;;;;;1.48;83.19;98906.60;106263;1323;22576;-68
2021/12/14 07:33:55;;;;;;;318.00;178.00;;;;;;;1.54;83.14;98912.20;106253;1322;22484;-68
2021/12/14 07:36:33;;;;;;;419.90;230.00;;;;;;;1.52;83.14;98911.30;106305;1323;22477;-67
2021/12/14 07:39:14;;;;;;;530.00;299.00;;;;;;;1.49;82.96;98921.14;106258;1323;22309;-68
2021/12/14 07:41:46;;;;;;;419.90;222.20;;;;;;;1.49;83.00;98926.69;106265;1323;22463;-69
2021/12/14 07:44:27;;;;;;;431.50;240.40;;;;;;;1.54;83.15;98920.98;106260;1323;22750;-68
2021/12/14 07:47:03;;;;;;;305.50;180.90;;;;;;;1.55;83.14;98912.39;106270;1323;23164;-68
2021/12/14 07:49:54;;;;;;;296.40;186.90;;;;;;;1.55;83.26;98912.84;106247;1323;22559;-69
2021/12/14 07:52:30;;;;;;;339.80;210.30;;;;;;;1.54;83.19;98911.30;106245;1323;22452;-70
2021/12/14 07:55:03;;;;;;;309.10;191.60;;;;;;;1.51;83.02;98915.51;106259;1323;22546;-69
2021/12/14 07:57:36;;;;;;;341.60;213.50;;;;;;;1.53;83.13;98916.69;106290;1316;22445;-68
2021/12/14 08:00:14;;;;;;;387.40;235.40;;;;;;;1.60;83.32;98914.36;106332;1323;22447;-69
2021/12/14 08:02:46;;;;;;;289.10;180.00;;;;;;;1.65;83.10;98910.64;106150;1316;137900;-68
2021/12/14 08:05:17;;;;;;;262.20;168.30;;;;;;;1.67;83.27;98909.65;106309;1322;22420;-66
2021/12/14 08:07:56;;;;;;;242.70;154.80;;;;;;;1.67;83.10;98910.70;106272;1317;22476;-68
2021/12/14 08:10:29;;;;;;;224.90;145.30;;;;;;;1.66;83.32;98905.37;106331;1322;23423;-67
2021/12/14 08:13:12;;;;;;;203.70;132.20;;;;;;;1.65;83.37;98901.04;106270;1322;22754;-67
2021/12/14 08:15:50;;;;;;;191.10;120.40;;;;;;;1.67;83.22;98902.57;106366;1322;23222;-66
2021/12/14 08:18:21;;;;;;;213.90;136.00;;;;;;;1.70;83.23;98905.61;106390;1322;22582;-68
2021/12/14 08:20:58;;;;;;;218.30;140.70;;;;;;;1.77;83.30;98909.33;106389;1322;22471;-67
2021/12/14 08:23:31;;;;;;;238.50;162.30;;;;;;;1.86;83.72;98909.30;106378;1322;22550;-68
2021/12/14 08:26:05;;;;;;;229.00;153.00;;;;;;;1.93;83.64;98902.61;106328;1321;22452;-67
2021/12/14 08:28:47;;;;;;;226.40;147.40;;;;;;;1.96;83.62;98913.08;106298;1322;22381;-68
2021/12/14 08:31:16;;;;;;;220.50;145.10;;;;;;;2.02;83.61;98920.93;106319;1323;22577;-68
2021/12/14 08:33:53;;;;;;;217.00;143.10;;;;;;;2.09;83.71;98918.91;106289;1323;23145;-67
2021/12/14 08:36:22;;;;;;;216.80;149.60;;;;;;;2.16;83.71;98917.20;106256;1323;22329;-66
2021/12/14 08:39:16;;;;;;;224.50;147.50;;;;;;;2.20;83.52;98918.19;106340;1320;22486;-69
2021/12/14 08:41:55;;;;;;;206.10;133.30;;;;;;;2.23;83.74;98922.90;106294;1323;22545;-67
2021/12/14 08:44:38;;;;;;;185.70;122.60;;;;;;;2.24;83.62;98922.58;106290;1323;22599;-68
2021/12/14 08:47:20;;;;;;;192.10;117.10;;;;;;;2.25;83.50;98920.27;106321;1323;22455;-68
2021/12/14 08:49:49;;;;;;;189.70;124.30;;;;;;;2.32;83.45;98928.64;106344;1323;22472;-69
2021/12/14 08:52:17;;;;;;;205.00;125.50;;;;;;;2.36;83.55;98928.19;106307;1322;23169;-69
2021/12/14 08:54:45;;;;;;;215.70;142.90;;;;;;;2.37;83.61;98925.08;106301;1323;23062;-69
2021/12/14 08:57:25;;;;;;;251.40;172.70;;;;;;;2.35;83.29;98927.58;106288;1323;22447;-69
2021/12/14 09:00:00;;;;;;;225.00;142.00;;;;;;;2.34;83.53;98926.90;106277;1323;22543;-69
2021/12/14 09:02:33;;;;;;;205.90;131.40;;;;;;;2.36;83.05;98931.58;106326;1323;22386;-69
2021/12/14 09:05:12;;;;;;;224.00;146.20;;;;;;;2.34;83.17;98931.11;106280;1323;22639;-69
2021/12/14 09:07:42;;;;;;;259.30;179.70;;;;;;;2.34;83.17;98923.61;106188;1322;137825;-69
2021/12/14 09:10:15;;;;;;;145.90;100.50;;;;;;;2.32;83.03;98920.98;106284;1316;23653;-69
2021/12/14 09:12:46;;;;;;;197.90;128.60;;;;;;;2.31;83.40;98917.61;106325;1323;23010;-69
2021/12/14 09:15:25;;;;;;;188.10;120.90;;;;;;;2.32;83.36;98910.54;106313;1323;22471;-69
2021/12/14 09:17:55;;;;;;;165.10;106.40;;;;;;;2.36;83.29;98904.40;106314;1323;22611;-69
2021/12/14 09:20:28;;;;;;;194.40;130.10;;;;;;;2.38;83.24;98901.23;106338;1322;22492;-70
2021/12/14 09:23:00;;;;;;;217.20;143.20;;;;;;;2.42;83.28;98892.52;106317;1322;22422;-70
2021/12/14 09:25:29;;;;;;;259.00;168.10;;;;;;;2.45;83.45;98891.75;106315;1323;22428;-68
2021/12/14 09:28:05;;;;;;;264.60;169.90;;;;;;;2.46;83.27;98888.95;106226;1323;137776;-69
2021/12/14 09:30:37;;;;;;;262.50;163.60;;;;;;;2.46;83.34;98892.56;106326;1323;23024;-69
2021/12/14 09:33:05;;;;;;;233.70;141.00;;;;;;;2.45;83.16;98889.58;106256;1323;22426;-70
2021/12/14 09:35:35;;;;;;;212.70;128.50;;;;;;;2.48;83.09;98887.52;106325;1322;22541;-68
2021/12/14 09:38:07;;;;;;;208.30;131.70;;;;;;;2.50;83.25;98891.34;106308;1323;22391;-70
2021/12/14 09:40:47;;;;;;;227.70;149.70;;;;;;;2.52;83.47;98892.52;106224;1323;22597;-70
2021/12/14 09:43:15;;;;;;;249.70;162.20;;;;;;;2.53;83.35;98892.16;106276;1321;22482;-70
2021/12/14 09:45:51;;;;;;;234.20;145.10;;;;;;;2.50;83.08;98889.45;106299;1322;22528;-68
2021/12/14 09:48:27;;;;;;;205.40;125.90;;;;;;;2.47;82.95;98884.16;106190;1323;22575;-68
2021/12/14 09:50:57;;;;;;;193.80;123.50;;;;;;;2.48;83.01;98886.02;105887;1323;520827;-69
2021/12/14 09:53:27;;;;;;;178.40;116.40;;;;;;;2.50;83.17;98883.07;106222;1323;23260;-68
2021/12/14 09:55:57;;;;;;;179.10;110.40;;;;;;;2.56;83.55;98880.25;106264;1323;22361;-68
2021/12/14 09:58:31;;;;;;;162.60;99.50;;;;;;;2.59;83.61;98877.15;106273;1323;22542;-69
2021/12/14 10:01:11;;;;;;;161.50;102.70;;;;;;;2.62;83.65;98875.15;106309;1317;22428;-67
2021/12/14 10:04:13;;;;;;;177.00;112.00;;;;;;;2.66;83.29;98872.36;106271;1323;23149;-70
2021/12/14 10:06:58;;;;;;;182.10;115.90;;;;;;;2.70;83.48;98875.61;106280;1323;23342;-70
2021/12/14 10:09:44;;;;;;;167.20;103.00;;;;;;;2.75;83.27;98875.89;106255;1323;22377;-71
2021/12/14 10:15:28;;;;;;;179.70;110.50;;;;;;;2.81;83.66;98878.65;106281;1323;22369;-70
2021/12/14 10:18:26;;;;;;;149.30;88.60;;;;;;;2.78;83.32;98874.17;106265;1324;22741;-69
2021/12/14 10:21:27;;;;;;;152.80;93.00;;;;;;;2.78;83.17;98869.30;106275;1323;22299;-70
2021/12/14 10:23:59;;;;;;;127.20;82.80;;;;;;;2.79;83.01;98869.62;106280;1323;22326;-67
2021/12/14 10:26:31;;;;;;;118.90;83.50;;;;;;;2.76;83.12;98863.67;106269;1323;22406;-68
2021/12/14 10:29:00;;;;;;;113.50;81.40;;;;;;;2.70;83.25;98864.69;106244;1323;23183;-69
2021/12/14 10:31:44;;;;;;;97.90;79.10;;;;;;;2.68;83.52;98863.36;106266;1323;22649;-70
2021/12/14 10:34:27;;;;;;;93.80;72.10;;;;;;;2.65;83.29;98866.10;106279;1323;22572;-68
2021/12/14 10:37:10;;;;;;;77.70;65.60;;;;;;;2.66;83.36;98866.13;106269;1323;23168;-66
2021/12/14 10:45:14;;;;;;;72.30;60.80;;;;;;;2.65;83.32;98848.05;106275;1323;22395;-69
2021/12/14 10:47:44;;;;;;;74.20;66.50;;;;;;;2.69;83.54;98850.33;106125;1323;137854;-68
2021/12/14 10:50:24;;;;;;;67.80;60.80;;;;;;;2.74;83.63;98853.83;106282;1323;22502;-68
2021/12/14 10:53:00;;;;;;;56.70;50.70;;;;;;;2.79;83.34;98853.89;106268;1323;22387;-68
2021/12/14 10:55:35;;;;;;;71.60;61.20;;;;;;;2.80;83.22;98851.80;106242;1323;23069;-68
2021/12/14 10:58:06;;;;;;;61.40;55.30;;;;;;;2.81;83.08;98845.96;106259;1323;22303;-68
2021/12/14 11:00:44;;;;;;;56.60;50.80;;;;;;;2.82;83.41;98844.77;106269;1323;22603;-68
2021/12/14 11:03:17;;;;;;;48.30;43.30;;;;;;;2.84;83.31;98846.95;106261;1323;23292;-68
2021/12/14 11:05:52;;;;;;;44.30;39.70;;;;;;;2.84;83.30;98842.16;106273;1322;22602;-67
2021/12/14 11:11:11;;;;;;;56.30;50.90;;;;;;;2.92;83.16;98837.13;106240;1323;22933;-67
2021/12/14 11:13:45;;;;;;;65.30;58.60;;;;;;;2.95;83.18;98834.64;106265;1323;22594;-67
2021/12/14 11:16:31;;;;;;;66.00;59.30;;;;;;;2.94;82.94;98834.73;106236;1323;23047;-69
2021/12/14 11:19:04;;;;;;;71.50;64.10;;;;;;;2.96;83.35;98835.15;106263;1323;22382;-67
2021/12/14 11:21:35;;;;;;;64.10;57.20;;;;;;;3.01;83.47;98837.88;106242;1324;22602;-71
2021/12/14 11:24:10;;;;;;;41.30;36.80;;;;;;;3.04;83.20;98833.54;106307;1323;22369;-69
2021/12/14 11:26:44;;;;;;;74.10;67.30;;;;;;;3.03;83.07;98831.13;106272;1323;22598;-70
2021/12/14 11:29:21;;;;;;;53.00;47.70;;;;;;;2.98;82.72;98828.65;106278;1323;22578;-72
2021/12/14 11:31:56;;;;;;;50.60;45.80;;;;;;;2.93;83.09;98827.20;106151;1325;22600;-72
2021/12/14 11:34:54;;;;;;;43.70;39.60;;;;;;;2.89;83.01;98831.94;106142;1321;137640;-70
2021/12/14 11:37:34;;;;;;;42.70;38.60;;;;;;;2.81;82.86;98830.39;106299;1315;23179;-70
2021/12/14 11:40:16;;;;;;;46.90;42.60;;;;;;;2.74;83.03;98832.16;106342;1316;22482;-73
2021/12/14 11:42:52;;;;;;;41.10;37.00;;;;;;;2.73;82.94;98832.13;106228;1323;23341;-69
2021/12/14 11:45:52;;;;;;;39.20;35.30;;;;;;;2.72;83.19;98828.02;106299;1323;22285;-72
2021/12/14 11:48:40;;;;;;;40.20;36.20;;;;;;;2.70;83.18;98819.23;106294;1323;23199;-70
2021/12/14 11:51:13;;;;;;;43.30;39.30;;;;;;;2.69;83.24;98822.66;106303;1323;22487;-72
2021/12/14 11:53:56;;;;;;;45.80;41.50;;;;;;;2.63;82.93;98818.56;106297;1323;22463;-70
2021/12/14 11:56:42;;;;;;;54.50;49.20;;;;;;;2.60;82.98;98819.74;106259;1325;22452;-71
2021/12/14 11:59:18;;;;;;;45.70;41.30;;;;;;;2.57;82.82;98819.34;106321;1323;22390;-73
2021/12/14 12:01:53;;;;;;;20.70;18.70;;;;;;;2.50;83.03;98821.02;106293;1323;22566;-72
2021/12/14 12:04:34;;;;;;;68.50;59.70;;;;;;;2.41;82.91;98820.84;106299;1323;22406;-71
2021/12/14 12:09:57;;;;;;;51.50;46.60;;;;;;;2.23;83.04;98825.52;106298;1323;22971;-70
2021/12/14 12:12:27;;;;;;;62.30;51.90;;;;;;;2.17;83.18;98829.66;106240;1323;22427;-72
2021/12/14 12:14:55;;;;;;;122.40;83.50;;;;;;;2.13;83.05;98826.14;106266;1323;22477;-72
2021/12/14 12:17:32;;;;;;;45.80;41.30;;;;;;;2.11;83.01;98830.20;106273;1323;22467;-71
2021/12/14 12:20:19;;;;;;;45.00;40.50;;;;;;;2.06;83.19;98833.63;106285;1322;22501;-71
2021/12/14 12:22:52;;;;;;;48.10;43.40;;;;;;;1.98;82.97;98838.98;106311;1323;22482;-72
2021/12/14 12:25:29;;;;;;;49.60;44.00;;;;;;;1.91;83.29;98834.30;106286;1323;22463;-72
2021/12/14 12:28:04;;;;;;;42.40;38.10;;;;;;;1.86;83.35;98830.42;106258;1323;22382;-62
2021/12/14 12:30:48;;;;;;;46.30;41.60;;;;;;;2.04;86.10;98831.17;106286;1323;22257;-61
2021/12/14 12:33:28;;;;;;;51.90;46.70;;;;;;;2.25;84.51;98828.02;106268;1323;22482;-65